Time;durP1;ratioP1;P1;durP2;ratioP2;P2;SDS_P1;SDS_P2;PMS_P1;PMS_P2;Temp;Humidity;BMP_temperature;BMP_pressure;BME280_temperature;BME280_humidity;BME280_pressure;Samples;Min_cycle;Max_cycle;Signal;HPM_P1;HPM_P2
2023/12/19 00:01:54;;;;;;;18.00;10.15;;;5.50;99.90;;;;;;4142937;28;20034;-74
2023/12/19 00:03:54;;;;;;;20.65;10.15;;;5.60;99.90;;;;;;4167616;28;20025;-73
2023/12/19 00:05:55;;;;;;;19.92;11.10;;;5.50;99.90;;;;;;4171936;28;20033;-73
2023/12/19 00:07:56;;;;;;;20.52;10.15;;;5.50;99.90;;;;;;4160361;28;20444;-73
2023/12/19 00:09:56;;;;;;;20.63;10.48;;;5.50;99.90;;;;;;4164218;28;20034;-74
2023/12/19 00:11:57;;;;;;;25.58;10.88;;;5.50;99.90;;;;;;4169583;28;20078;-74
2023/12/19 00:13:57;;;;;;;19.73;10.65;;;5.50;99.90;;;;;;4167984;28;20423;-73
2023/12/19 00:15:58;;;;;;;18.38;10.27;;;5.60;99.90;;;;;;4158775;28;20426;-73
2023/12/19 00:17:58;;;;;;;22.83;10.52;;;5.60;99.90;;;;;;4162798;28;20411;-73
2023/12/19 00:19:59;;;;;;;22.65;10.20;;;5.50;99.90;;;;;;4159171;28;20041;-73
2023/12/19 00:22:00;;;;;;;24.42;11.65;;;5.60;99.90;;;;;;4157437;28;20467;-73
2023/12/19 00:24:00;;;;;;;25.98;12.10;;;5.60;99.90;;;;;;4155603;28;20029;-73
2023/12/19 00:26:01;;;;;;;21.70;10.95;;;5.60;99.90;;;;;;4150279;28;20030;-73
2023/12/19 00:28:02;;;;;;;18.05;10.73;;;5.60;99.90;;;;;;4163310;28;20407;-73
2023/12/19 00:30:02;;;;;;;19.73;10.55;;;5.50;99.90;;;;;;4165226;28;20049;-73
2023/12/19 00:32:03;;;;;;;26.85;12.07;;;5.60;99.90;;;;;;4165023;28;20044;-74
2023/12/19 00:34:04;;;;;;;19.35;10.27;;;5.60;99.90;;;;;;4162502;28;20108;-71
2023/12/19 00:36:05;;;;;;;20.35;10.95;;;5.60;99.90;;;;;;4164636;28;20045;-72
2023/12/19 00:38:06;;;;;;;23.10;11.80;;;5.60;99.90;;;;;;4161950;28;20052;-71
2023/12/19 00:40:07;;;;;;;20.27;11.45;;;5.60;99.90;;;;;;4165487;28;20041;-71
2023/12/19 00:42:08;;;;;;;22.20;10.75;;;5.60;99.90;;;;;;4167316;28;20037;-70
2023/12/19 00:44:08;;;;;;;22.90;11.85;;;5.60;99.90;;;;;;4162979;28;20467;-72
2023/12/19 00:46:09;;;;;;;20.45;11.07;;;5.60;99.90;;;;;;4171644;28;20033;-71
2023/12/19 00:48:10;;;;;;;24.85;11.05;;;5.60;99.90;;;;;;4166717;28;20041;-71
2023/12/19 00:50:15;;;;;;;17.45;9.98;;;5.60;99.90;;;;;;4160072;28;20207;-72
2023/12/19 00:52:15;;;;;;;19.20;10.38;;;5.60;99.90;;;;;;4163245;28;20557;-72
2023/12/19 00:54:16;;;;;;;17.85;10.45;;;5.60;99.90;;;;;;4160334;28;20041;-71
2023/12/19 00:56:16;;;;;;;18.17;9.38;;;5.60;99.90;;;;;;4165983;28;20072;-71
2023/12/19 00:58:20;;;;;;;18.83;10.38;;;5.70;99.90;;;;;;4162287;28;20060;-72
2023/12/19 01:00:21;;;;;;;17.13;9.10;;;5.70;99.90;;;;;;4162730;28;20037;-71
2023/12/19 01:02:21;;;;;;;18.08;10.23;;;5.70;99.90;;;;;;4168828;28;20048;-72
2023/12/19 01:04:22;;;;;;;19.65;9.68;;;5.70;99.90;;;;;;4154719;28;20046;-72
2023/12/19 01:06:22;;;;;;;16.50;9.40;;;5.70;99.90;;;;;;4160974;28;20573;-72
2023/12/19 01:08:23;;;;;;;19.95;10.68;;;5.70;99.90;;;;;;4161898;28;20146;-71
2023/12/19 01:10:24;;;;;;;16.58;10.30;;;5.80;99.90;;;;;;4163556;28;20063;-71
2023/12/19 01:12:24;;;;;;;17.08;9.82;;;5.80;99.90;;;;;;4173633;28;20039;-73
2023/12/19 01:14:25;;;;;;;18.05;10.05;;;5.80;99.90;;;;;;4168247;28;20099;-71
2023/12/19 01:16:25;;;;;;;17.38;8.90;;;5.80;99.90;;;;;;4163510;28;20037;-72
2023/12/19 01:18:26;;;;;;;16.60;9.20;;;5.80;99.90;;;;;;4162981;28;20479;-71
2023/12/19 01:20:27;;;;;;;16.10;9.77;;;5.80;99.90;;;;;;4162418;28;20044;-71
2023/12/19 01:22:27;;;;;;;15.73;8.77;;;5.80;99.90;;;;;;4159534;28;20156;-71
2023/12/19 01:24:28;;;;;;;15.57;9.68;;;5.80;99.90;;;;;;4167178;28;20536;-71
2023/12/19 01:26:30;;;;;;;18.90;10.00;;;5.80;99.90;;;;;;4163592;28;20025;-71
2023/12/19 01:28:31;;;;;;;18.00;10.48;;;5.80;99.90;;;;;;4162198;28;20510;-71
2023/12/19 01:30:32;;;;;;;19.05;10.68;;;5.80;99.90;;;;;;4161034;28;20060;-72
2023/12/19 01:32:32;;;;;;;15.40;9.13;;;5.80;99.90;;;;;;4166097;28;20024;-72
2023/12/19 01:34:33;;;;;;;13.30;8.63;;;5.90;99.90;;;;;;4143730;28;20456;-73
2023/12/19 01:36:33;;;;;;;18.15;9.75;;;5.80;99.90;;;;;;4158843;28;20491;-71
2023/12/19 01:38:34;;;;;;;13.55;8.57;;;5.90;99.90;;;;;;4162543;28;20053;-71
2023/12/19 01:40:35;;;;;;;15.80;9.65;;;5.80;99.90;;;;;;4167669;28;20036;-71
2023/12/19 01:42:35;;;;;;;19.02;10.75;;;5.80;99.90;;;;;;4172393;28;20033;-72
2023/12/19 01:44:36;;;;;;;20.80;10.85;;;5.80;99.90;;;;;;4166106;28;20045;-72
2023/12/19 01:46:36;;;;;;;17.20;10.18;;;5.80;99.90;;;;;;4159299;28;20034;-71
2023/12/19 01:48:37;;;;;;;17.40;10.35;;;5.80;99.90;;;;;;4160597;28;20046;-71
2023/12/19 01:50:37;;;;;;;20.75;11.13;;;5.80;99.90;;;;;;4158512;28;20033;-72
2023/12/19 01:52:41;;;;;;;17.35;10.30;;;5.90;99.90;;;;;;4164164;28;20486;-71
2023/12/19 01:54:42;;;;;;;16.20;10.43;;;5.90;99.90;;;;;;4160188;28;20037;-72
2023/12/19 01:56:43;;;;;;;15.88;10.50;;;5.80;99.90;;;;;;4172383;28;20123;-71
2023/12/19 01:58:44;;;;;;;18.05;11.20;;;5.90;99.90;;;;;;4164148;28;20044;-71
2023/12/19 02:00:45;;;;;;;16.77;10.20;;;5.90;99.90;;;;;;4140827;28;20680;-71
2023/12/19 02:02:46;;;;;;;17.25;11.20;;;5.90;99.90;;;;;;4169028;28;20034;-70
2023/12/19 02:04:47;;;;;;;16.65;9.82;;;5.90;99.90;;;;;;4157361;28;20088;-73
2023/12/19 02:06:48;;;;;;;18.35;9.90;;;5.90;99.90;;;;;;4160295;28;20033;-73
2023/12/19 02:08:49;;;;;;;18.95;11.25;;;5.90;99.90;;;;;;4162498;28;20621;-73
2023/12/19 02:10:49;;;;;;;17.08;10.35;;;5.90;99.90;;;;;;4153292;28;20037;-73
2023/12/19 02:12:50;;;;;;;18.80;10.93;;;5.90;99.90;;;;;;4159245;28;20041;-73
2023/12/19 02:14:51;;;;;;;16.63;10.05;;;5.90;99.90;;;;;;4159910;28;20041;-73
2023/12/19 02:16:52;;;;;;;17.45;10.20;;;5.90;99.90;;;;;;4157676;28;20037;-73
2023/12/19 02:19:05;;;;;;;21.88;11.27;;;5.90;99.90;;;;;;4157543;28;20072;-73
2023/12/19 02:21:06;;;;;;;17.75;10.27;;;5.90;99.90;;;;;;4155449;28;20391;-74
2023/12/19 02:23:06;;;;;;;19.05;10.48;;;5.90;99.90;;;;;;4158124;28;20036;-73
2023/12/19 02:25:08;;;;;;;16.98;10.57;;;5.90;99.90;;;;;;4153280;28;20479;-73
2023/12/19 02:27:09;;;;;;;17.33;10.38;;;5.90;99.90;;;;;;4167081;28;20029;-73
2023/12/19 02:29:09;;;;;;;17.60;10.57;;;5.90;99.90;;;;;;4165159;28;20041;-73
2023/12/19 02:31:10;;;;;;;19.55;11.23;;;5.90;99.90;;;;;;4161219;28;20480;-73
2023/12/19 02:33:11;;;;;;;19.35;10.77;;;5.90;99.90;;;;;;4160147;28;20535;-73
2023/12/19 02:35:11;;;;;;;15.77;10.45;;;6.00;99.90;;;;;;4158477;28;20064;-73
2023/12/19 02:37:12;;;;;;;19.35;10.73;;;6.00;99.90;;;;;;4163069;28;20033;-73
2023/12/19 02:39:13;;;;;;;23.58;12.63;;;6.00;99.90;;;;;;4159145;28;20056;-73
2023/12/19 02:41:13;;;;;;;24.05;12.18;;;6.00;99.90;;;;;;4161964;28;20036;-74
2023/12/19 02:43:14;;;;;;;19.98;11.38;;;6.00;99.90;;;;;;4164515;28;20057;-73
2023/12/19 02:45:15;;;;;;;20.63;11.93;;;6.00;99.90;;;;;;4159499;28;20044;-73
2023/12/19 02:47:16;;;;;;;21.08;12.30;;;6.00;99.90;;;;;;4160419;28;20034;-73
2023/12/19 02:49:17;;;;;;;19.65;11.55;;;6.00;99.90;;;;;;4160083;28;20048;-73
2023/12/19 02:51:21;;;;;;;19.90;11.55;;;6.00;99.90;;;;;;4166564;28;20048;-73
2023/12/19 02:53:22;;;;;;;22.63;12.13;;;6.00;99.90;;;;;;4168354;28;20041;-73
2023/12/19 02:55:22;;;;;;;19.60;11.77;;;6.00;99.90;;;;;;4167245;28;20394;-73
2023/12/19 02:57:23;;;;;;;20.77;12.07;;;6.10;99.90;;;;;;4167836;28;20409;-73
2023/12/19 02:59:23;;;;;;;22.30;12.82;;;6.00;99.90;;;;;;4145730;28;20053;-73
2023/12/19 03:01:24;;;;;;;22.92;12.30;;;6.10;99.90;;;;;;4158831;28;20403;-73
2023/12/19 03:03:24;;;;;;;21.27;12.32;;;6.00;99.90;;;;;;4165259;28;20033;-73
2023/12/19 03:05:25;;;;;;;19.65;11.05;;;6.00;99.90;;;;;;4159048;28;20041;-73
2023/12/19 03:07:26;;;;;;;18.75;10.32;;;6.10;99.90;;;;;;4170342;28;20029;-73
2023/12/19 03:09:26;;;;;;;20.55;11.48;;;6.10;99.90;;;;;;4168115;28;20037;-72
2023/12/19 03:11:27;;;;;;;21.83;12.23;;;6.10;99.90;;;;;;4166897;28;20025;-73
2023/12/19 03:13:27;;;;;;;21.70;11.88;;;6.10;99.90;;;;;;4173614;28;20050;-73
2023/12/19 03:15:28;;;;;;;20.77;12.05;;;6.10;99.90;;;;;;4171263;28;20132;-70
2023/12/19 03:17:28;;;;;;;26.30;13.00;;;6.10;99.90;;;;;;4169982;28;20453;-71
2023/12/19 03:19:30;;;;;;;25.83;12.68;;;6.10;99.90;;;;;;4164446;28;20076;-71
2023/12/19 03:21:30;;;;;;;23.42;12.48;;;6.10;99.90;;;;;;4168086;28;20034;-72
2023/12/19 03:23:32;;;;;;;27.67;14.18;;;6.10;99.90;;;;;;4175813;28;20025;-71
2023/12/19 03:25:32;;;;;;;21.90;12.38;;;6.10;99.90;;;;;;4161019;28;20656;-71
2023/12/19 03:27:33;;;;;;;28.90;14.30;;;6.10;99.90;;;;;;4161824;28;20030;-70
2023/12/19 03:29:34;;;;;;;25.58;12.82;;;6.10;99.90;;;;;;4161787;28;20032;-71
2023/12/19 03:31:35;;;;;;;22.63;13.02;;;6.10;99.90;;;;;;4156253;28;20025;-70
2023/12/19 03:33:35;;;;;;;20.52;12.35;;;6.10;99.90;;;;;;4164827;28;20107;-71
2023/12/19 03:35:36;;;;;;;24.88;13.18;;;6.10;99.90;;;;;;4162876;28;20094;-71
2023/12/19 03:37:36;;;;;;;26.63;14.02;;;6.10;99.90;;;;;;4172792;28;20037;-72
2023/12/19 03:39:37;;;;;;;20.60;12.27;;;6.20;99.90;;;;;;4161348;28;20601;-72
2023/12/19 03:41:37;;;;;;;22.80;12.82;;;6.20;99.90;;;;;;4159383;28;20399;-71
2023/12/19 03:43:38;;;;;;;22.25;12.07;;;6.20;99.90;;;;;;4173216;28;20487;-71
2023/12/19 03:45:38;;;;;;;23.48;13.07;;;6.10;99.90;;;;;;4160956;28;20030;-71
2023/12/19 03:47:39;;;;;;;21.33;12.05;;;6.20;99.90;;;;;;4168872;28;20104;-72
2023/12/19 03:49:40;;;;;;;22.02;11.65;;;6.20;99.90;;;;;;4163166;28;20030;-71
2023/12/19 03:51:40;;;;;;;18.17;11.40;;;6.20;99.90;;;;;;4152541;28;20043;-71
2023/12/19 03:53:41;;;;;;;20.05;11.82;;;6.20;99.90;;;;;;4173561;28;20037;-72
2023/12/19 03:55:42;;;;;;;16.88;10.73;;;6.20;99.90;;;;;;4166943;28;20500;-72
2023/12/19 03:57:42;;;;;;;19.65;10.88;;;6.20;99.90;;;;;;4176162;28;20111;-72
2023/12/19 03:59:44;;;;;;;19.15;10.75;;;6.20;99.90;;;;;;4163546;28;20033;-73
2023/12/19 04:01:45;;;;;;;21.38;11.02;;;6.20;99.90;;;;;;4165295;28;20510;-73
2023/12/19 04:03:45;;;;;;;19.77;11.25;;;6.20;99.90;;;;;;4169348;28;20049;-73
2023/12/19 04:05:46;;;;;;;18.00;10.98;;;6.20;99.90;;;;;;4163728;28;21650;-72
2023/12/19 04:07:46;;;;;;;18.95;11.35;;;6.20;99.90;;;;;;4167469;28;20036;-73
2023/12/19 04:09:47;;;;;;;16.30;10.40;;;6.20;99.90;;;;;;4158863;28;20038;-73
2023/12/19 04:11:48;;;;;;;17.35;10.63;;;6.20;99.90;;;;;;4165455;28;20391;-73
2023/12/19 04:13:48;;;;;;;16.15;9.75;;;6.20;99.90;;;;;;4160113;28;20435;-74
2023/12/19 04:15:49;;;;;;;16.25;9.88;;;6.20;99.90;;;;;;4157408;28;20061;-73
2023/12/19 04:17:50;;;;;;;17.42;10.57;;;6.10;99.90;;;;;;4156382;28;20065;-74
2023/12/19 04:19:50;;;;;;;16.95;10.20;;;6.10;99.90;;;;;;4163026;28;20038;-73
2023/12/19 04:21:51;;;;;;;16.40;10.13;;;6.10;99.90;;;;;;4159409;28;20471;-73
2023/12/19 04:23:52;;;;;;;24.20;11.10;;;6.10;99.90;;;;;;4167457;28;20079;-73
2023/12/19 04:25:52;;;;;;;19.25;10.45;;;6.10;99.90;;;;;;4142385;28;20025;-74
2023/12/19 04:27:53;;;;;;;17.75;10.50;;;6.10;99.90;;;;;;4162034;28;21639;-74
2023/12/19 04:29:55;;;;;;;14.60;9.73;;;6.10;99.90;;;;;;4154496;28;20037;-74
2023/12/19 04:31:56;;;;;;;13.18;8.65;;;6.10;99.90;;;;;;4151293;28;20467;-73
2023/12/19 04:33:56;;;;;;;17.23;10.02;;;6.10;99.90;;;;;;4161101;28;20029;-74
2023/12/19 04:35:57;;;;;;;16.40;9.93;;;6.10;99.90;;;;;;4162029;28;20100;-73
2023/12/19 04:37:58;;;;;;;16.25;9.90;;;6.10;99.90;;;;;;4164244;28;20410;-73
2023/12/19 04:39:58;;;;;;;15.18;9.57;;;6.10;99.90;;;;;;4166801;28;20503;-73
2023/12/19 04:41:59;;;;;;;13.98;8.73;;;6.10;99.90;;;;;;4162616;28;20562;-74
2023/12/19 04:44:00;;;;;;;13.32;8.38;;;6.10;99.90;;;;;;4168759;28;20494;-73
2023/12/19 04:46:03;;;;;;;14.90;8.73;;;6.20;99.90;;;;;;4165461;28;20108;-73
2023/12/19 04:48:04;;;;;;;14.20;8.35;;;6.20;99.90;;;;;;4162442;28;20038;-73
2023/12/19 04:50:06;;;;;;;11.40;7.72;;;6.10;99.90;;;;;;4167410;28;20410;-73
2023/12/19 04:52:06;;;;;;;13.82;8.75;;;6.20;99.90;;;;;;4163541;28;20033;-73
2023/12/19 04:54:08;;;;;;;13.05;8.20;;;6.20;99.90;;;;;;4164654;28;20036;-73
2023/12/19 04:56:11;;;;;;;12.38;8.02;;;6.20;99.90;;;;;;4162416;28;20033;-73
2023/12/19 04:58:11;;;;;;;11.52;7.60;;;6.20;99.90;;;;;;4169362;28;20041;-73
2023/12/19 05:00:13;;;;;;;15.00;8.63;;;6.20;99.90;;;;;;4166405;28;20363;-73
2023/12/19 05:02:13;;;;;;;12.95;8.90;;;6.20;99.90;;;;;;4171012;28;20029;-73
2023/12/19 05:04:14;;;;;;;13.73;8.60;;;6.20;99.90;;;;;;4169782;28;20099;-73
2023/12/19 05:06:17;;;;;;;13.93;8.77;;;6.30;99.90;;;;;;4156300;28;20055;-73
2023/12/19 05:08:17;;;;;;;;;;;6.30;99.90;;;;;;4160160;28;20176;-73
2023/12/19 05:10:18;;;;;;;15.05;8.85;;;6.30;99.90;;;;;;4155470;28;20375;-74
2023/12/19 05:12:19;;;;;;;14.65;9.35;;;6.30;99.90;;;;;;4167871;28;21379;-74
2023/12/19 05:14:20;;;;;;;13.77;8.68;;;6.30;99.90;;;;;;4167696;28;20030;-74
2023/12/19 05:16:20;;;;;;;16.23;9.65;;;6.30;99.90;;;;;;4158599;28;20479;-73
2023/12/19 05:18:21;;;;;;;16.55;9.75;;;6.30;99.90;;;;;;4142441;28;20045;-73
2023/12/19 05:20:22;;;;;;;15.60;9.90;;;6.40;99.90;;;;;;4162921;28;20045;-74
2023/12/19 05:22:22;;;;;;;13.88;8.60;;;6.40;99.90;;;;;;4152751;28;20041;-73
2023/12/19 05:24:23;;;;;;;12.38;8.73;;;6.40;99.90;;;;;;4160513;28;20044;-73
2023/12/19 05:26:24;;;;;;;14.30;8.73;;;6.40;99.90;;;;;;4158314;28;20457;-73
2023/12/19 05:28:24;;;;;;;15.75;9.00;;;6.40;99.90;;;;;;4159422;28;20072;-73
2023/12/19 05:30:25;;;;;;;15.55;9.73;;;6.40;99.90;;;;;;4150979;28;20038;-74
2023/12/19 05:32:25;;;;;;;14.35;9.45;;;6.40;99.90;;;;;;4162374;28;20030;-73
2023/12/19 05:34:26;;;;;;;13.63;8.32;;;6.50;99.90;;;;;;4152529;28;20033;-73
2023/12/19 05:36:27;;;;;;;12.68;8.70;;;6.50;99.90;;;;;;4159968;28;20053;-72
2023/12/19 05:38:30;;;;;;;11.27;7.75;;;6.50;99.90;;;;;;4157388;28;20045;-73
2023/12/19 05:40:30;;;;;;;11.80;7.93;;;6.50;99.90;;;;;;4158138;28;20051;-72
2023/12/19 05:42:31;;;;;;;13.15;8.15;;;6.50;99.90;;;;;;4157023;28;20087;-72
2023/12/19 05:44:32;;;;;;;12.18;8.15;;;6.60;99.90;;;;;;4159647;28;20446;-73
2023/12/19 05:46:32;;;;;;;11.57;7.60;;;6.60;99.90;;;;;;4154494;28;20384;-73
2023/12/19 05:48:33;;;;;;;11.60;7.68;;;6.60;99.90;;;;;;4163262;28;20052;-73
2023/12/19 05:50:34;;;;;;;13.60;8.32;;;6.60;99.90;;;;;;4159720;28;20113;-72
2023/12/19 05:52:34;;;;;;;11.80;7.85;;;6.60;99.90;;;;;;4161880;28;20116;-73
2023/12/19 05:54:35;;;;;;;12.65;8.45;;;6.60;99.90;;;;;;4163966;28;20495;-71
2023/12/19 05:56:36;;;;;;;12.40;8.38;;;6.70;99.90;;;;;;4165062;28;20052;-72
2023/12/19 05:58:36;;;;;;;12.85;8.32;;;6.70;99.90;;;;;;4153218;28;20039;-73
2023/12/19 06:00:37;;;;;;;12.73;7.30;;;6.70;99.90;;;;;;4157003;28;20113;-72
2023/12/19 06:02:38;;;;;;;12.73;7.70;;;6.70;99.90;;;;;;4155415;28;20026;-72
2023/12/19 06:04:38;;;;;;;13.60;8.20;;;6.70;99.90;;;;;;4162502;28;20041;-72
2023/12/19 06:06:43;;;;;;;11.52;7.75;;;6.70;99.90;;;;;;4168624;28;20513;-72
2023/12/19 06:08:44;;;;;;;12.43;8.20;;;6.80;99.90;;;;;;4158137;28;20034;-72
2023/12/19 06:10:45;;;;;;;10.82;7.55;;;6.70;99.90;;;;;;4161047;28;20037;-72
2023/12/19 06:12:46;;;;;;;13.18;7.93;;;6.80;99.90;;;;;;4172254;28;20041;-72
2023/12/19 06:14:47;;;;;;;12.82;8.27;;;6.70;99.90;;;;;;4153791;28;20116;-72
2023/12/19 06:16:47;;;;;;;11.75;7.95;;;6.80;99.90;;;;;;4177295;28;20021;-72
2023/12/19 06:18:48;;;;;;;11.93;7.78;;;6.80;99.90;;;;;;4157329;28;20053;-73
2023/12/19 06:20:49;;;;;;;10.93;7.63;;;6.80;99.90;;;;;;4163409;28;20390;-73
2023/12/19 06:22:49;;;;;;;11.45;7.78;;;6.80;99.90;;;;;;4160044;28;20022;-73
2023/12/19 06:24:50;;;;;;;10.65;7.43;;;6.80;99.90;;;;;;4161634;28;20032;-73
2023/12/19 06:26:50;;;;;;;12.43;7.63;;;6.90;99.90;;;;;;4166628;28;20041;-73
2023/12/19 06:28:51;;;;;;;10.73;7.47;;;6.80;99.90;;;;;;4159588;28;20049;-72
2023/12/19 06:30:52;;;;;;;11.93;7.35;;;6.90;99.90;;;;;;4161571;28;20029;-73
2023/12/19 06:32:52;;;;;;;13.27;8.32;;;6.90;99.90;;;;;;4168075;28;20029;-72
2023/12/19 06:34:55;;;;;;;12.32;7.97;;;6.90;99.90;;;;;;4152604;28;20487;-73
2023/12/19 06:36:55;;;;;;;11.00;8.07;;;7.00;99.90;;;;;;4167492;28;20483;-73
2023/12/19 06:38:56;;;;;;;12.25;8.20;;;6.90;99.90;;;;;;4168959;28;20095;-73
2023/12/19 06:40:57;;;;;;;12.65;9.05;;;6.90;99.90;;;;;;4166028;28;20931;-74
2023/12/19 06:42:57;;;;;;;10.18;7.07;;;6.90;99.90;;;;;;4152455;28;22226;-74
2023/12/19 06:45:00;;;;;;;12.40;8.32;;;6.90;99.90;;;;;;4160671;28;20041;-73
2023/12/19 06:47:01;;;;;;;13.05;8.93;;;7.00;99.90;;;;;;4160629;28;20033;-73
2023/12/19 06:49:01;;;;;;;12.73;8.55;;;7.00;99.90;;;;;;4160314;28;20582;-72
2023/12/19 06:51:02;;;;;;;11.80;8.40;;;6.90;99.90;;;;;;4163999;28;20038;-73
2023/12/19 06:53:03;;;;;;;12.75;8.73;;;6.90;99.90;;;;;;4161920;28;20052;-72
2023/12/19 06:55:04;;;;;;;17.40;9.70;;;7.00;99.90;;;;;;4159229;28;20041;-74
2023/12/19 06:57:05;;;;;;;13.85;9.43;;;7.00;99.90;;;;;;4160319;28;20036;-73
2023/12/19 06:59:06;;;;;;;12.23;8.13;;;7.10;99.90;;;;;;4159144;28;20490;-73
2023/12/19 07:01:07;;;;;;;14.73;9.52;;;7.10;99.90;;;;;;4160903;28;20025;-73
2023/12/19 07:03:07;;;;;;;13.88;9.13;;;7.10;99.90;;;;;;4152945;28;20589;-73
2023/12/19 07:05:09;;;;;;;13.25;9.23;;;7.10;99.90;;;;;;4161025;28;20040;-75
2023/12/19 07:07:10;;;;;;;14.15;9.60;;;7.10;99.90;;;;;;4157328;28;20041;-75
2023/12/19 07:09:14;;;;;;;12.40;8.30;;;7.10;99.90;;;;;;4159991;28;20402;-75
2023/12/19 07:11:15;;;;;;;13.07;8.90;;;7.10;99.90;;;;;;4154874;28;20041;-75
2023/12/19 07:13:15;;;;;;;12.55;7.97;;;7.10;99.90;;;;;;4152404;28;20043;-74
2023/12/19 07:15:16;;;;;;;12.70;8.65;;;7.10;99.90;;;;;;4160292;28;20037;-75
2023/12/19 07:17:17;;;;;;;11.95;7.95;;;7.10;99.90;;;;;;4160292;28;20057;-74
2023/12/19 07:19:17;;;;;;;11.75;8.32;;;7.10;99.90;;;;;;4158001;28;20146;-75
2023/12/19 07:21:22;;;;;;;14.18;8.60;;;7.20;99.90;;;;;;4158779;28;20033;-75
2023/12/19 07:23:23;;;;;;;11.80;8.35;;;7.10;99.90;;;;;;4156997;28;20502;-75
2023/12/19 07:25:24;;;;;;;11.63;7.28;;;7.10;99.90;;;;;;4154623;28;20037;-75
2023/12/19 07:27:24;;;;;;;12.77;7.97;;;7.20;99.90;;;;;;4155318;28;20415;-75
2023/12/19 07:29:27;;;;;;;12.15;8.27;;;7.20;99.90;;;;;;4154387;28;20044;-75
2023/12/19 07:31:31;;;;;;;10.93;7.95;;;7.20;99.90;;;;;;4159951;28;20669;-74
2023/12/19 07:33:32;;;;;;;15.80;7.88;;;7.20;99.90;;;;;;4156992;28;20030;-75
2023/12/19 07:35:32;;;;;;;16.60;8.00;;;7.20;99.90;;;;;;4157682;28;20056;-75
2023/12/19 07:37:33;;;;;;;12.73;7.97;;;7.20;99.90;;;;;;4154391;28;20057;-76
2023/12/19 07:39:34;;;;;;;13.63;7.80;;;7.20;99.90;;;;;;4160460;28;20051;-76
2023/12/19 07:41:34;;;;;;;12.40;8.55;;;7.20;99.90;;;;;;4155009;28;20030;-73
2023/12/19 07:43:35;;;;;;;13.65;8.63;;;7.30;99.90;;;;;;4151641;28;20052;-74
2023/12/19 07:45:36;;;;;;;15.45;8.25;;;7.20;99.90;;;;;;4154092;28;20041;-74
2023/12/19 07:47:37;;;;;;;12.18;8.05;;;7.30;99.90;;;;;;4160927;28;20091;-73
2023/12/19 07:49:37;;;;;;;11.40;7.57;;;7.30;99.90;;;;;;4162763;28;20041;-73
2023/12/19 07:51:38;;;;;;;15.27;8.77;;;7.30;99.90;;;;;;4149629;28;20033;-74
2023/12/19 07:53:39;;;;;;;15.45;8.52;;;7.30;99.90;;;;;;4153445;28;20056;-74
2023/12/19 07:55:41;;;;;;;14.02;8.40;;;7.30;99.90;;;;;;4154930;28;20033;-74
2023/12/19 07:57:42;;;;;;;13.80;7.75;;;7.30;99.90;;;;;;4151489;28;20068;-73
2023/12/19 07:59:42;;;;;;;12.65;8.10;;;7.40;99.90;;;;;;4158337;28;20488;-74
2023/12/19 08:01:48;;;;;;;16.20;9.25;;;7.40;99.90;;;;;;4155256;28;20047;-74
2023/12/19 08:03:48;;;;;;;12.02;7.80;;;7.30;99.90;;;;;;4151618;28;20175;-74
2023/12/19 08:05:50;;;;;;;12.32;7.60;;;7.40;99.90;;;;;;4152642;28;20169;-73
2023/12/19 08:07:50;;;;;;;11.32;7.00;;;7.40;99.90;;;;;;4155643;28;20456;-74
2023/12/19 08:09:51;;;;;;;16.17;7.80;;;7.40;99.90;;;;;;4155137;28;20033;-74
2023/12/19 08:11:52;;;;;;;17.42;7.63;;;7.40;99.90;;;;;;4160231;28;20053;-74
2023/12/19 08:13:52;;;;;;;13.50;7.80;;;7.40;99.90;;;;;;4158893;28;20032;-74
2023/12/19 08:15:53;;;;;;;15.32;7.38;;;7.40;99.90;;;;;;4160194;28;20398;-74
2023/12/19 08:17:53;;;;;;;12.23;7.93;;;7.50;99.90;;;;;;4150171;28;20479;-74
2023/12/19 08:19:54;;;;;;;11.07;7.15;;;7.40;99.90;;;;;;4157950;28;20022;-74
2023/12/19 08:21:56;;;;;;;11.20;7.38;;;7.50;99.90;;;;;;4161004;28;20052;-74
2023/12/19 08:23:57;;;;;;;11.38;7.25;;;7.50;99.90;;;;;;4152958;28;20458;-73
2023/12/19 08:25:57;;;;;;;16.15;7.45;;;7.50;99.90;;;;;;4151680;28;20025;-74
2023/12/19 08:27:58;;;;;;;12.40;7.82;;;7.50;99.90;;;;;;4150620;28;20085;-73
2023/12/19 08:29:58;;;;;;;11.80;7.55;;;7.50;99.90;;;;;;4161708;28;20037;-74
2023/12/19 08:31:59;;;;;;;13.13;7.50;;;7.50;99.90;;;;;;4154166;28;20033;-73
2023/12/19 08:33:59;;;;;;;13.20;7.90;;;7.50;99.90;;;;;;4152964;28;20049;-74
2023/12/19 08:36:00;;;;;;;13.80;8.10;;;7.50;99.90;;;;;;4153640;28;20061;-74
2023/12/19 08:38:01;;;;;;;11.68;7.10;;;7.50;99.90;;;;;;4152153;28;20677;-73
2023/12/19 08:40:03;;;;;;;11.23;7.20;;;7.50;99.90;;;;;;4154145;28;20041;-74
2023/12/19 08:42:04;;;;;;;14.82;7.57;;;7.50;99.90;;;;;;4156415;28;20117;-74
2023/12/19 08:44:04;;;;;;;13.63;7.68;;;7.60;99.90;;;;;;4157763;28;20034;-73
2023/12/19 08:46:05;;;;;;;11.48;6.75;;;7.60;99.90;;;;;;4152791;28;20395;-73
2023/12/19 08:48:06;;;;;;;15.40;7.30;;;7.60;99.90;;;;;;4162699;28;20028;-73
2023/12/19 08:50:09;;;;;;;14.35;8.23;;;7.60;99.90;;;;;;4164637;28;20462;-73
2023/12/19 08:52:10;;;;;;;13.15;7.32;;;7.60;99.90;;;;;;4160163;28;20064;-73
2023/12/19 08:54:11;;;;;;;10.80;6.53;;;7.60;99.90;;;;;;4165682;28;20045;-73
2023/12/19 08:56:11;;;;;;;12.38;6.95;;;7.60;99.90;;;;;;4165579;28;20053;-74
2023/12/19 08:58:12;;;;;;;11.55;6.78;;;7.60;99.90;;;;;;4165731;28;20513;-73
2023/12/19 09:00:18;;;;;;;10.50;6.50;;;7.60;99.90;;;;;;4154540;28;20494;-73
2023/12/19 09:02:20;;;;;;;14.27;7.15;;;7.60;99.90;;;;;;4163533;28;20143;-73
2023/12/19 09:04:21;;;;;;;10.43;6.70;;;7.60;99.90;;;;;;4165155;28;20055;-73
2023/12/19 09:06:21;;;;;;;13.65;7.43;;;7.60;99.90;;;;;;4160118;28;20040;-73
2023/12/19 09:08:23;;;;;;;13.63;7.35;;;7.60;99.90;;;;;;4162240;28;20044;-73
2023/12/19 09:10:24;;;;;;;10.45;7.05;;;7.60;99.90;;;;;;4162924;28;20044;-74
2023/12/19 09:12:25;;;;;;;13.18;7.05;;;7.70;99.90;;;;;;4169196;28;20402;-74
2023/12/19 09:14:25;;;;;;;10.18;6.30;;;7.70;99.90;;;;;;4162349;28;20505;-73
2023/12/19 09:16:28;;;;;;;12.85;6.30;;;7.70;99.90;;;;;;4156847;28;20025;-73
2023/12/19 09:18:28;;;;;;;12.00;6.53;;;7.70;99.90;;;;;;4151599;28;20042;-74
2023/12/19 09:20:30;;;;;;;13.77;7.32;;;7.70;99.90;;;;;;4165920;28;20650;-74
2023/12/19 09:22:31;;;;;;;12.23;6.82;;;7.70;99.90;;;;;;4157153;28;20130;-74
2023/12/19 09:24:31;;;;;;;12.35;6.45;;;7.70;99.90;;;;;;4163712;28;20107;-73
2023/12/19 09:26:33;;;;;;;10.85;6.72;;;7.80;99.90;;;;;;4158037;28;20037;-74
2023/12/19 09:28:33;;;;;;;11.68;6.50;;;7.80;99.90;;;;;;4162359;28;20087;-73
2023/12/19 09:30:34;;;;;;;9.30;5.65;;;7.80;99.90;;;;;;4158527;28;20041;-73
2023/12/19 09:32:38;;;;;;;11.20;5.85;;;7.80;99.90;;;;;;4159544;28;20561;-73
2023/12/19 09:34:41;;;;;;;8.65;5.80;;;7.80;99.90;;;;;;4154940;28;20073;-73
2023/12/19 09:36:41;;;;;;;10.85;6.43;;;7.80;99.90;;;;;;4161507;28;20030;-73
2023/12/19 09:38:43;;;;;;;10.40;5.50;;;7.80;99.90;;;;;;4154750;28;20053;-73
2023/12/19 09:40:43;;;;;;;8.23;5.55;;;7.80;99.90;;;;;;4163979;28;20067;-73
2023/12/19 09:42:44;;;;;;;12.20;5.85;;;7.80;99.90;;;;;;4164758;28;20044;-74
2023/12/19 09:44:47;;;;;;;8.68;5.00;;;7.80;99.90;;;;;;4164882;28;20386;-73
2023/12/19 09:46:49;;;;;;;14.43;5.68;;;7.80;99.90;;;;;;4152311;28;20202;-73
2023/12/19 09:48:50;;;;;;;8.88;4.82;;;7.80;99.90;;;;;;4157191;28;20045;-73
2023/12/19 09:50:51;;;;;;;8.95;5.10;;;7.80;99.90;;;;;;4156152;28;20367;-73
2023/12/19 09:52:56;;;;;;;10.85;5.38;;;7.90;99.90;;;;;;4153621;28;20038;-73
2023/12/19 09:54:57;;;;;;;12.05;5.32;;;7.80;99.90;;;;;;4157093;28;20042;-73
2023/12/19 09:56:59;;;;;;;9.23;4.90;;;7.80;99.90;;;;;;4157899;28;20037;-74
2023/12/19 09:59:03;;;;;;;9.07;5.30;;;7.80;99.90;;;;;;4161727;28;20383;-73
2023/12/19 10:01:04;;;;;;;9.60;4.85;;;7.80;99.90;;;;;;4166983;28;20029;-74
2023/12/19 10:03:05;;;;;;;9.73;4.97;;;7.80;99.90;;;;;;4153209;28;20580;-74
2023/12/19 10:05:08;;;;;;;8.90;4.85;;;7.80;99.90;;;;;;4149006;28;20526;-74
2023/12/19 10:07:08;;;;;;;9.20;5.07;;;7.90;99.90;;;;;;4153954;28;20705;-73
2023/12/19 10:09:15;;;;;;;8.25;4.15;;;7.80;99.90;;;;;;4153088;28;20034;-73
2023/12/19 10:11:24;;;;;;;7.40;4.65;;;7.80;99.90;;;;;;4154531;28;20030;-73
2023/12/19 10:13:36;;;;;;;6.22;3.80;;;7.80;99.90;;;;;;4153595;28;20500;-73
2023/12/19 10:15:37;;;;;;;9.03;4.67;;;7.80;99.90;;;;;;4153379;28;20025;-73
2023/12/19 10:17:37;;;;;;;11.95;4.72;;;7.80;99.90;;;;;;4156938;28;20095;-73
2023/12/19 10:19:38;;;;;;;6.82;4.28;;;7.90;99.90;;;;;;4156890;28;20679;-73
2023/12/19 10:21:40;;;;;;;7.00;4.03;;;7.80;99.90;;;;;;4154187;28;20505;-73
2023/12/19 10:23:41;;;;;;;8.48;4.10;;;7.80;99.90;;;;;;4154021;28;20391;-73
2023/12/19 10:25:42;;;;;;;8.90;4.18;;;7.80;99.90;;;;;;4151773;28;20041;-73
2023/12/19 10:27:42;;;;;;;9.07;4.38;;;7.80;99.90;;;;;;4151051;28;20051;-73